sensor_id;sensor_type;location;lat;lon;timestamp;P1;durP1;ratioP1;P2;durP2;ratioP2
9722;SDS011;4900;49.306;8.500;2023-04-28T00:00:17;3.63;;;2.80;;
9722;SDS011;4900;49.306;8.500;2023-04-28T00:02:43;3.05;;;2.75;;
9722;SDS011;4900;49.306;8.500;2023-04-28T00:05:09;2.83;;;2.25;;
9722;SDS011;4900;49.306;8.500;2023-04-28T00:07:36;3.25;;;2.60;;
9722;SDS011;4900;49.306;8.500;2023-04-28T00:10:01;2.92;;;2.45;;
9722;SDS011;4900;49.306;8.500;2023-04-28T00:12:26;3.22;;;2.92;;
9722;SDS011;4900;49.306;8.500;2023-04-28T00:14:52;2.90;;;2.58;;
9722;SDS011;4900;49.306;8.500;2023-04-28T00:17:17;3.47;;;2.70;;
9722;SDS011;4900;49.306;8.500;2023-04-28T00:19:43;3.28;;;2.97;;
9722;SDS011;4900;49.306;8.500;2023-04-28T00:22:09;3.38;;;2.70;;
9722;SDS011;4900;49.306;8.500;2023-04-28T00:24:34;5.10;;;3.10;;
9722;SDS011;4900;49.306;8.500;2023-04-28T00:27:00;2.65;;;2.42;;
9722;SDS011;4900;49.306;8.500;2023-04-28T00:29:28;3.15;;;2.38;;
9722;SDS011;4900;49.306;8.500;2023-04-28T00:31:53;3.05;;;2.75;;
9722;SDS011;4900;49.306;8.500;2023-04-28T00:34:19;3.50;;;2.80;;
9722;SDS011;4900;49.306;8.500;2023-04-28T00:36:44;4.22;;;3.08;;
9722;SDS011;4900;49.306;8.500;2023-04-28T00:39:10;3.50;;;2.85;;
9722;SDS011;4900;49.306;8.500;2023-04-28T00:41:35;3.40;;;3.08;;
9722;SDS011;4900;49.306;8.500;2023-04-28T00:44:01;3.65;;;2.80;;
9722;SDS011;4900;49.306;8.500;2023-04-28T00:46:28;4.95;;;2.90;;
9722;SDS011;4900;49.306;8.500;2023-04-28T00:48:56;3.65;;;2.75;;
9722;SDS011;4900;49.306;8.500;2023-04-28T00:51:22;3.70;;;2.85;;
9722;SDS011;4900;49.306;8.500;2023-04-28T00:53:48;3.10;;;2.53;;
9722;SDS011;4900;49.306;8.500;2023-04-28T00:56:15;4.22;;;3.05;;
9722;SDS011;4900;49.306;8.500;2023-04-28T00:58:40;3.88;;;3.38;;
9722;SDS011;4900;49.306;8.500;2023-04-28T01:01:07;3.60;;;3.00;;
9722;SDS011;4900;49.306;8.500;2023-04-28T01:03:34;3.67;;;3.30;;
9722;SDS011;4900;49.306;8.500;2023-04-28T01:06:02;3.60;;;2.92;;
9722;SDS011;4900;49.306;8.500;2023-04-28T01:08:30;4.18;;;2.80;;
9722;SDS011;4900;49.306;8.500;2023-04-28T01:10:56;3.90;;;3.00;;
9722;SDS011;4900;49.306;8.500;2023-04-28T01:13:22;3.25;;;2.95;;
9722;SDS011;4900;49.306;8.500;2023-04-28T01:15:47;3.88;;;2.75;;
9722;SDS011;4900;49.306;8.500;2023-04-28T01:18:13;4.72;;;3.17;;
9722;SDS011;4900;49.306;8.500;2023-04-28T01:20:40;3.33;;;3.00;;
9722;SDS011;4900;49.306;8.500;2023-04-28T01:23:15;4.03;;;2.92;;
9722;SDS011;4900;49.306;8.500;2023-04-28T01:25:41;3.53;;;3.10;;
9722;SDS011;4900;49.306;8.500;2023-04-28T01:28:08;3.67;;;3.05;;
9722;SDS011;4900;49.306;8.500;2023-04-28T01:30:34;4.82;;;3.60;;
9722;SDS011;4900;49.306;8.500;2023-04-28T01:33:00;4.18;;;3.42;;
9722;SDS011;4900;49.306;8.500;2023-04-28T01:35:26;4.53;;;3.10;;
9722;SDS011;4900;49.306;8.500;2023-04-28T01:37:52;4.45;;;3.25;;
9722;SDS011;4900;49.306;8.500;2023-04-28T01:40:17;3.80;;;3.13;;
9722;SDS011;4900;49.306;8.500;2023-04-28T01:42:43;4.65;;;3.10;;
9722;SDS011;4900;49.306;8.500;2023-04-28T01:45:09;4.15;;;3.22;;
9722;SDS011;4900;49.306;8.500;2023-04-28T01:47:34;3.90;;;3.47;;
9722;SDS011;4900;49.306;8.500;2023-04-28T01:50:00;4.03;;;3.20;;
9722;SDS011;4900;49.306;8.500;2023-04-28T01:52:26;3.60;;;2.67;;
9722;SDS011;4900;49.306;8.500;2023-04-28T01:58:14;3.97;;;2.90;;
9722;SDS011;4900;49.306;8.500;2023-04-28T02:00:39;3.72;;;3.42;;
9722;SDS011;4900;49.306;8.500;2023-04-28T02:03:04;4.15;;;3.47;;
9722;SDS011;4900;49.306;8.500;2023-04-28T02:05:30;3.20;;;2.90;;
9722;SDS011;4900;49.306;8.500;2023-04-28T02:07:56;3.95;;;3.17;;
9722;SDS011;4900;49.306;8.500;2023-04-28T02:10:21;3.72;;;3.28;;
9722;SDS011;4900;49.306;8.500;2023-04-28T02:12:46;4.30;;;3.10;;
9722;SDS011;4900;49.306;8.500;2023-04-28T02:15:12;4.40;;;3.10;;
9722;SDS011;4900;49.306;8.500;2023-04-28T02:17:38;3.88;;;3.47;;
9722;SDS011;4900;49.306;8.500;2023-04-28T02:20:03;3.58;;;3.28;;
9722;SDS011;4900;49.306;8.500;2023-04-28T02:22:29;5.50;;;3.95;;
9722;SDS011;4900;49.306;8.500;2023-04-28T02:24:54;5.30;;;3.80;;
9722;SDS011;4900;49.306;8.500;2023-04-28T02:27:20;4.15;;;3.63;;
9722;SDS011;4900;49.306;8.500;2023-04-28T02:29:45;4.75;;;3.70;;
9722;SDS011;4900;49.306;8.500;2023-04-28T02:32:11;4.55;;;3.50;;
9722;SDS011;4900;49.306;8.500;2023-04-28T02:34:36;4.05;;;3.63;;
9722;SDS011;4900;49.306;8.500;2023-04-28T02:37:02;4.63;;;3.88;;
9722;SDS011;4900;49.306;8.500;2023-04-28T02:39:27;4.15;;;3.35;;
9722;SDS011;4900;49.306;8.500;2023-04-28T02:41:54;3.58;;;3.25;;
9722;SDS011;4900;49.306;8.500;2023-04-28T02:44:20;3.50;;;3.10;;
9722;SDS011;4900;49.306;8.500;2023-04-28T02:46:46;6.30;;;3.88;;
9722;SDS011;4900;49.306;8.500;2023-04-28T02:49:11;5.88;;;3.72;;
9722;SDS011;4900;49.306;8.500;2023-04-28T02:51:37;4.55;;;3.72;;
9722;SDS011;4900;49.306;8.500;2023-04-28T02:54:03;5.18;;;4.00;;
9722;SDS011;4900;49.306;8.500;2023-04-28T02:56:29;5.32;;;4.05;;
9722;SDS011;4900;49.306;8.500;2023-04-28T02:58:54;6.38;;;4.28;;
9722;SDS011;4900;49.306;8.500;2023-04-28T03:01:20;5.75;;;4.15;;
9722;SDS011;4900;49.306;8.500;2023-04-28T03:03:45;4.80;;;3.92;;
9722;SDS011;4900;49.306;8.500;2023-04-28T03:06:11;4.45;;;3.95;;
9722;SDS011;4900;49.306;8.500;2023-04-28T03:08:36;5.00;;;3.85;;
9722;SDS011;4900;49.306;8.500;2023-04-28T03:11:02;4.55;;;3.75;;
9722;SDS011;4900;49.306;8.500;2023-04-28T03:13:27;5.75;;;3.78;;
9722;SDS011;4900;49.306;8.500;2023-04-28T03:15:54;5.85;;;3.70;;
9722;SDS011;4900;49.306;8.500;2023-04-28T03:18:20;4.22;;;3.30;;
9722;SDS011;4900;49.306;8.500;2023-04-28T03:20:46;4.32;;;3.92;;
9722;SDS011;4900;49.306;8.500;2023-04-28T03:23:12;3.90;;;3.40;;
9722;SDS011;4900;49.306;8.500;2023-04-28T03:25:38;4.53;;;3.67;;
9722;SDS011;4900;49.306;8.500;2023-04-28T03:28:03;3.40;;;3.10;;
9722;SDS011;4900;49.306;8.500;2023-04-28T03:30:29;4.18;;;3.25;;
9722;SDS011;4900;49.306;8.500;2023-04-28T03:32:54;4.68;;;3.97;;
9722;SDS011;4900;49.306;8.500;2023-04-28T03:35:20;5.65;;;4.43;;
9722;SDS011;4900;49.306;8.500;2023-04-28T03:37:45;3.95;;;3.35;;
9722;SDS011;4900;49.306;8.500;2023-04-28T03:40:11;4.90;;;3.78;;
9722;SDS011;4900;49.306;8.500;2023-04-28T03:42:36;4.57;;;4.13;;
9722;SDS011;4900;49.306;8.500;2023-04-28T03:45:02;5.30;;;3.97;;
9722;SDS011;4900;49.306;8.500;2023-04-28T03:47:28;5.15;;;4.15;;
9722;SDS011;4900;49.306;8.500;2023-04-28T03:49:53;5.93;;;4.05;;
9722;SDS011;4900;49.306;8.500;2023-04-28T03:52:19;5.20;;;4.28;;
9722;SDS011;4900;49.306;8.500;2023-04-28T03:54:45;5.15;;;4.35;;
9722;SDS011;4900;49.306;8.500;2023-04-28T03:57:10;4.65;;;3.90;;
9722;SDS011;4900;49.306;8.500;2023-04-28T03:59:36;5.82;;;4.30;;
9722;SDS011;4900;49.306;8.500;2023-04-28T04:02:02;6.68;;;4.53;;
9722;SDS011;4900;49.306;8.500;2023-04-28T04:04:28;4.85;;;4.30;;
9722;SDS011;4900;49.306;8.500;2023-04-28T04:06:53;5.20;;;4.10;;
9722;SDS011;4900;49.306;8.500;2023-04-28T04:09:18;6.47;;;4.55;;
9722;SDS011;4900;49.306;8.500;2023-04-28T04:11:44;5.82;;;4.50;;
9722;SDS011;4900;49.306;8.500;2023-04-28T04:14:09;4.55;;;4.10;;
9722;SDS011;4900;49.306;8.500;2023-04-28T04:16:35;6.47;;;4.45;;
9722;SDS011;4900;49.306;8.500;2023-04-28T04:19:01;5.85;;;4.78;;
9722;SDS011;4900;49.306;8.500;2023-04-28T04:21:26;4.70;;;4.20;;
9722;SDS011;4900;49.306;8.500;2023-04-28T04:23:52;5.90;;;4.78;;
9722;SDS011;4900;49.306;8.500;2023-04-28T04:26:18;5.60;;;4.75;;
9722;SDS011;4900;49.306;8.500;2023-04-28T04:28:43;5.60;;;4.57;;
9722;SDS011;4900;49.306;8.500;2023-04-28T04:31:09;4.82;;;4.32;;
9722;SDS011;4900;49.306;8.500;2023-04-28T04:33:34;4.80;;;4.13;;
9722;SDS011;4900;49.306;8.500;2023-04-28T04:36:01;5.78;;;4.70;;
9722;SDS011;4900;49.306;8.500;2023-04-28T04:38:28;5.60;;;4.50;;
9722;SDS011;4900;49.306;8.500;2023-04-28T04:40:54;6.68;;;5.05;;
9722;SDS011;4900;49.306;8.500;2023-04-28T04:43:20;5.22;;;4.45;;
9722;SDS011;4900;49.306;8.500;2023-04-28T04:45:46;5.70;;;4.35;;
9722;SDS011;4900;49.306;8.500;2023-04-28T04:48:11;5.57;;;4.65;;
9722;SDS011;4900;49.306;8.500;2023-04-28T04:50:37;6.28;;;4.97;;
9722;SDS011;4900;49.306;8.500;2023-04-28T04:53:02;5.60;;;4.45;;
9722;SDS011;4900;49.306;8.500;2023-04-28T04:55:27;5.80;;;4.20;;
9722;SDS011;4900;49.306;8.500;2023-04-28T04:57:53;6.30;;;4.70;;
9722;SDS011;4900;49.306;8.500;2023-04-28T05:00:19;4.53;;;4.00;;
9722;SDS011;4900;49.306;8.500;2023-04-28T05:02:44;5.80;;;4.60;;
9722;SDS011;4900;49.306;8.500;2023-04-28T05:05:10;4.72;;;4.03;;
9722;SDS011;4900;49.306;8.500;2023-04-28T05:07:35;4.82;;;4.10;;
9722;SDS011;4900;49.306;8.500;2023-04-28T05:10:01;4.57;;;3.92;;
9722;SDS011;4900;49.306;8.500;2023-04-28T05:12:27;4.40;;;3.80;;
9722;SDS011;4900;49.306;8.500;2023-04-28T05:14:52;4.43;;;3.90;;
9722;SDS011;4900;49.306;8.500;2023-04-28T05:17:17;4.38;;;3.70;;
9722;SDS011;4900;49.306;8.500;2023-04-28T05:19:43;5.97;;;4.30;;
9722;SDS011;4900;49.306;8.500;2023-04-28T05:22:09;5.63;;;4.10;;
9722;SDS011;4900;49.306;8.500;2023-04-28T05:24:35;5.05;;;4.13;;
9722;SDS011;4900;49.306;8.500;2023-04-28T05:27:00;6.63;;;4.38;;
9722;SDS011;4900;49.306;8.500;2023-04-28T05:29:26;5.00;;;4.50;;
9722;SDS011;4900;49.306;8.500;2023-04-28T05:31:51;4.57;;;4.07;;
9722;SDS011;4900;49.306;8.500;2023-04-28T05:34:17;5.85;;;4.60;;
9722;SDS011;4900;49.306;8.500;2023-04-28T05:36:43;4.47;;;4.00;;
9722;SDS011;4900;49.306;8.500;2023-04-28T05:39:08;5.20;;;4.32;;
9722;SDS011;4900;49.306;8.500;2023-04-28T05:41:34;5.60;;;4.75;;
9722;SDS011;4900;49.306;8.500;2023-04-28T05:44:00;4.22;;;3.83;;
9722;SDS011;4900;49.306;8.500;2023-04-28T05:46:26;5.10;;;4.28;;
9722;SDS011;4900;49.306;8.500;2023-04-28T05:48:51;7.32;;;4.93;;
9722;SDS011;4900;49.306;8.500;2023-04-28T05:51:17;4.80;;;4.05;;
9722;SDS011;4900;49.306;8.500;2023-04-28T05:53:42;5.95;;;4.80;;
9722;SDS011;4900;49.306;8.500;2023-04-28T05:56:08;6.10;;;4.75;;
9722;SDS011;4900;49.306;8.500;2023-04-28T05:58:33;6.22;;;4.32;;
9722;SDS011;4900;49.306;8.500;2023-04-28T06:00:59;5.45;;;4.32;;
9722;SDS011;4900;49.306;8.500;2023-04-28T06:03:24;5.95;;;4.45;;
9722;SDS011;4900;49.306;8.500;2023-04-28T06:05:50;5.85;;;4.57;;
9722;SDS011;4900;49.306;8.500;2023-04-28T06:08:15;5.82;;;4.85;;
9722;SDS011;4900;49.306;8.500;2023-04-28T06:10:41;5.30;;;4.25;;
9722;SDS011;4900;49.306;8.500;2023-04-28T06:13:06;7.30;;;5.10;;
9722;SDS011;4900;49.306;8.500;2023-04-28T06:15:33;5.32;;;4.63;;
9722;SDS011;4900;49.306;8.500;2023-04-28T06:17:59;7.50;;;5.15;;
9722;SDS011;4900;49.306;8.500;2023-04-28T06:20:24;7.32;;;5.30;;
9722;SDS011;4900;49.306;8.500;2023-04-28T06:22:50;6.47;;;5.35;;
9722;SDS011;4900;49.306;8.500;2023-04-28T06:25:15;8.88;;;5.60;;
9722;SDS011;4900;49.306;8.500;2023-04-28T06:27:41;7.90;;;5.50;;
9722;SDS011;4900;49.306;8.500;2023-04-28T06:30:06;6.00;;;5.10;;
9722;SDS011;4900;49.306;8.500;2023-04-28T06:32:32;6.95;;;5.75;;
9722;SDS011;4900;49.306;8.500;2023-04-28T06:34:58;5.75;;;5.18;;
9722;SDS011;4900;49.306;8.500;2023-04-28T06:37:23;7.53;;;6.05;;
9722;SDS011;4900;49.306;8.500;2023-04-28T06:39:49;6.57;;;5.45;;
9722;SDS011;4900;49.306;8.500;2023-04-28T06:42:14;8.55;;;5.90;;
9722;SDS011;4900;49.306;8.500;2023-04-28T06:44:42;5.68;;;5.03;;
9722;SDS011;4900;49.306;8.500;2023-04-28T06:47:09;8.07;;;5.53;;
9722;SDS011;4900;49.306;8.500;2023-04-28T06:49:34;6.55;;;5.15;;
9722;SDS011;4900;49.306;8.500;2023-04-28T06:52:00;5.38;;;4.53;;
9722;SDS011;4900;49.306;8.500;2023-04-28T06:54:25;6.63;;;5.03;;
9722;SDS011;4900;49.306;8.500;2023-04-28T06:56:51;7.20;;;4.80;;
9722;SDS011;4900;49.306;8.500;2023-04-28T06:59:16;5.75;;;5.05;;
9722;SDS011;4900;49.306;8.500;2023-04-28T07:01:42;5.72;;;5.00;;
9722;SDS011;4900;49.306;8.500;2023-04-28T07:04:07;6.50;;;5.28;;
9722;SDS011;4900;49.306;8.500;2023-04-28T07:06:33;8.07;;;5.55;;
9722;SDS011;4900;49.306;8.500;2023-04-28T07:08:58;7.25;;;5.38;;
9722;SDS011;4900;49.306;8.500;2023-04-28T07:11:23;8.23;;;5.75;;
9722;SDS011;4900;49.306;8.500;2023-04-28T07:13:49;5.70;;;4.97;;
9722;SDS011;4900;49.306;8.500;2023-04-28T07:16:16;6.57;;;5.13;;
9722;SDS011;4900;49.306;8.500;2023-04-28T07:18:43;8.18;;;5.55;;
9722;SDS011;4900;49.306;8.500;2023-04-28T07:21:08;6.30;;;5.00;;
9722;SDS011;4900;49.306;8.500;2023-04-28T07:23:34;8.50;;;6.40;;
9722;SDS011;4900;49.306;8.500;2023-04-28T07:26:02;7.32;;;5.35;;
9722;SDS011;4900;49.306;8.500;2023-04-28T07:28:28;7.18;;;5.20;;
9722;SDS011;4900;49.306;8.500;2023-04-28T07:30:54;6.13;;;4.97;;
9722;SDS011;4900;49.306;8.500;2023-04-28T07:33:19;7.45;;;5.00;;
9722;SDS011;4900;49.306;8.500;2023-04-28T07:35:45;6.57;;;5.10;;
9722;SDS011;4900;49.306;8.500;2023-04-28T07:38:10;6.30;;;5.05;;
9722;SDS011;4900;49.306;8.500;2023-04-28T07:40:36;7.60;;;5.45;;
9722;SDS011;4900;49.306;8.500;2023-04-28T07:43:01;5.63;;;4.78;;
9722;SDS011;4900;49.306;8.500;2023-04-28T07:45:28;6.45;;;5.63;;
9722;SDS011;4900;49.306;8.500;2023-04-28T07:47:53;7.75;;;5.97;;
9722;SDS011;4900;49.306;8.500;2023-04-28T07:50:19;6.90;;;5.57;;
9722;SDS011;4900;49.306;8.500;2023-04-28T07:52:44;7.95;;;6.60;;
9722;SDS011;4900;49.306;8.500;2023-04-28T07:55:10;8.13;;;6.63;;
9722;SDS011;4900;49.306;8.500;2023-04-28T07:57:35;8.23;;;6.30;;
9722;SDS011;4900;49.306;8.500;2023-04-28T08:00:01;8.95;;;6.93;;
9722;SDS011;4900;49.306;8.500;2023-04-28T08:02:27;9.98;;;7.20;;
9722;SDS011;4900;49.306;8.500;2023-04-28T08:04:52;8.70;;;6.53;;
9722;SDS011;4900;49.306;8.500;2023-04-28T08:07:18;7.43;;;5.97;;
9722;SDS011;4900;49.306;8.500;2023-04-28T08:09:43;7.28;;;5.80;;
9722;SDS011;4900;49.306;8.500;2023-04-28T08:12:12;7.07;;;5.47;;
9722;SDS011;4900;49.306;8.500;2023-04-28T08:14:38;5.75;;;5.13;;
9722;SDS011;4900;49.306;8.500;2023-04-28T08:17:04;6.43;;;5.47;;
9722;SDS011;4900;49.306;8.500;2023-04-28T08:19:29;5.60;;;4.93;;
9722;SDS011;4900;49.306;8.500;2023-04-28T08:21:55;8.10;;;5.50;;
9722;SDS011;4900;49.306;8.500;2023-04-28T08:24:20;6.32;;;4.78;;
9722;SDS011;4900;49.306;8.500;2023-04-28T08:26:46;5.20;;;4.68;;
9722;SDS011;4900;49.306;8.500;2023-04-28T08:29:11;6.32;;;4.65;;
9722;SDS011;4900;49.306;8.500;2023-04-28T08:31:37;6.80;;;4.70;;
9722;SDS011;4900;49.306;8.500;2023-04-28T08:34:02;5.22;;;4.45;;
9722;SDS011;4900;49.306;8.500;2023-04-28T08:36:28;5.60;;;4.68;;
9722;SDS011;4900;49.306;8.500;2023-04-28T08:38:56;5.35;;;4.72;;
9722;SDS011;4900;49.306;8.500;2023-04-28T08:41:27;4.75;;;4.20;;
9722;SDS011;4900;49.306;8.500;2023-04-28T08:43:57;5.68;;;4.43;;
9722;SDS011;4900;49.306;8.500;2023-04-28T08:46:22;4.55;;;4.15;;
9722;SDS011;4900;49.306;8.500;2023-04-28T08:48:49;5.28;;;3.97;;
9722;SDS011;4900;49.306;8.500;2023-04-28T08:51:31;4.82;;;4.32;;
9722;SDS011;4900;49.306;8.500;2023-04-28T08:53:58;5.00;;;4.15;;
9722;SDS011;4900;49.306;8.500;2023-04-28T08:56:25;5.00;;;4.20;;
9722;SDS011;4900;49.306;8.500;2023-04-28T08:58:55;4.30;;;3.90;;
9722;SDS011;4900;49.306;8.500;2023-04-28T09:01:22;4.72;;;4.10;;
9722;SDS011;4900;49.306;8.500;2023-04-28T09:03:47;4.30;;;3.88;;
9722;SDS011;4900;49.306;8.500;2023-04-28T09:06:13;4.30;;;3.70;;
9722;SDS011;4900;49.306;8.500;2023-04-28T09:08:38;4.50;;;3.40;;
9722;SDS011;4900;49.306;8.500;2023-04-28T09:11:07;4.13;;;3.70;;
9722;SDS011;4900;49.306;8.500;2023-04-28T09:13:34;3.50;;;3.15;;
9722;SDS011;4900;49.306;8.500;2023-04-28T09:16:01;3.60;;;3.30;;
9722;SDS011;4900;49.306;8.500;2023-04-28T09:18:27;4.78;;;3.30;;
9722;SDS011;4900;49.306;8.500;2023-04-28T09:21:05;3.67;;;3.28;;
9722;SDS011;4900;49.306;8.500;2023-04-28T09:23:32;2.92;;;2.63;;
9722;SDS011;4900;49.306;8.500;2023-04-28T09:28:26;3.67;;;3.20;;
9722;SDS011;4900;49.306;8.500;2023-04-28T09:30:52;3.00;;;2.70;;
9722;SDS011;4900;49.306;8.500;2023-04-28T09:33:18;2.92;;;2.65;;
9722;SDS011;4900;49.306;8.500;2023-04-28T09:35:45;4.53;;;3.00;;
9722;SDS011;4900;49.306;8.500;2023-04-28T09:38:11;3.03;;;2.70;;
9722;SDS011;4900;49.306;8.500;2023-04-28T09:43:26;3.05;;;2.65;;
9722;SDS011;4900;49.306;8.500;2023-04-28T09:46:02;3.35;;;3.00;;
9722;SDS011;4900;49.306;8.500;2023-04-28T09:48:35;3.40;;;3.10;;
9722;SDS011;4900;49.306;8.500;2023-04-28T09:51:05;3.65;;;2.90;;
9722;SDS011;4900;49.306;8.500;2023-04-28T09:53:32;3.75;;;3.00;;
9722;SDS011;4900;49.306;8.500;2023-04-28T09:55:59;3.33;;;3.00;;
9722;SDS011;4900;49.306;8.500;2023-04-28T09:58:26;3.20;;;2.95;;
9722;SDS011;4900;49.306;8.500;2023-04-28T10:00:53;3.40;;;2.90;;
9722;SDS011;4900;49.306;8.500;2023-04-28T10:03:29;3.08;;;2.72;;
9722;SDS011;4900;49.306;8.500;2023-04-28T10:05:55;3.25;;;2.95;;
9722;SDS011;4900;49.306;8.500;2023-04-28T10:08:22;3.90;;;3.60;;
9722;SDS011;4900;49.306;8.500;2023-04-28T10:10:49;3.60;;;3.22;;
9722;SDS011;4900;49.306;8.500;2023-04-28T10:13:18;3.30;;;3.00;;
9722;SDS011;4900;49.306;8.500;2023-04-28T10:15:44;3.90;;;3.50;;
9722;SDS011;4900;49.306;8.500;2023-04-28T10:18:10;3.10;;;2.80;;
9722;SDS011;4900;49.306;8.500;2023-04-28T10:20:37;3.50;;;3.20;;
9722;SDS011;4900;49.306;8.500;2023-04-28T10:26:00;3.90;;;3.33;;
9722;SDS011;4900;49.306;8.500;2023-04-28T10:28:27;4.18;;;3.78;;
9722;SDS011;4900;49.306;8.500;2023-04-28T10:31:09;4.30;;;3.53;;
9722;SDS011;4900;49.306;8.500;2023-04-28T10:33:38;4.00;;;3.53;;
9722;SDS011;4900;49.306;8.500;2023-04-28T10:36:05;3.65;;;3.35;;
9722;SDS011;4900;49.306;8.500;2023-04-28T10:38:31;3.63;;;3.30;;
9722;SDS011;4900;49.306;8.500;2023-04-28T10:40:57;3.70;;;3.40;;
9722;SDS011;4900;49.306;8.500;2023-04-28T10:59:23;3.70;;;3.40;;
9722;SDS011;4900;49.306;8.500;2023-04-28T11:01:49;3.58;;;3.13;;
9722;SDS011;4900;49.306;8.500;2023-04-28T11:04:14;4.10;;;3.50;;
9722;SDS011;4900;49.306;8.500;2023-04-28T11:06:45;3.97;;;3.47;;
9722;SDS011;4900;49.306;8.500;2023-04-28T11:11:36;4.18;;;3.67;;
9722;SDS011;4900;49.306;8.500;2023-04-28T11:19:24;4.38;;;3.92;;
9722;SDS011;4900;49.306;8.500;2023-04-28T11:21:51;4.10;;;3.35;;
9722;SDS011;4900;49.306;8.500;2023-04-28T11:24:19;3.72;;;3.38;;
9722;SDS011;4900;49.306;8.500;2023-04-28T11:26:44;3.38;;;3.08;;
9722;SDS011;4900;49.306;8.500;2023-04-28T11:29:10;3.70;;;3.22;;
9722;SDS011;4900;49.306;8.500;2023-04-28T11:31:37;4.88;;;2.78;;
9722;SDS011;4900;49.306;8.500;2023-04-28T11:34:06;3.65;;;3.35;;
9722;SDS011;4900;49.306;8.500;2023-04-28T11:36:37;3.70;;;3.10;;
9722;SDS011;4900;49.306;8.500;2023-04-28T11:39:04;3.60;;;3.30;;
9722;SDS011;4900;49.306;8.500;2023-04-28T11:41:32;3.53;;;3.22;;
9722;SDS011;4900;49.306;8.500;2023-04-28T11:46:36;2.90;;;2.60;;
9722;SDS011;4900;49.306;8.500;2023-04-28T11:49:10;3.95;;;3.53;;
9722;SDS011;4900;49.306;8.500;2023-04-28T11:51:36;3.30;;;3.00;;
9722;SDS011;4900;49.306;8.500;2023-04-28T11:54:03;3.58;;;3.22;;
9722;SDS011;4900;49.306;8.500;2023-04-28T11:56:35;2.65;;;2.45;;
9722;SDS011;4900;49.306;8.500;2023-04-28T11:59:03;2.90;;;2.38;;
9722;SDS011;4900;49.306;8.500;2023-04-28T12:01:30;2.60;;;2.30;;
9722;SDS011;4900;49.306;8.500;2023-04-28T12:03:56;2.45;;;2.20;;
9722;SDS011;4900;49.306;8.500;2023-04-28T12:06:22;2.83;;;2.20;;
9722;SDS011;4900;49.306;8.500;2023-04-28T12:08:47;3.25;;;2.55;;
9722;SDS011;4900;49.306;8.500;2023-04-28T12:11:13;3.50;;;2.70;;
9722;SDS011;4900;49.306;8.500;2023-04-28T12:13:40;3.25;;;2.70;;
9722;SDS011;4900;49.306;8.500;2023-04-28T12:16:06;3.00;;;2.50;;
9722;SDS011;4900;49.306;8.500;2023-04-28T12:18:33;2.47;;;2.25;;
9722;SDS011;4900;49.306;8.500;2023-04-28T12:20:59;2.90;;;2.58;;
9722;SDS011;4900;49.306;8.500;2023-04-28T12:23:42;2.15;;;1.95;;
9722;SDS011;4900;49.306;8.500;2023-04-28T12:26:08;2.65;;;2.40;;
9722;SDS011;4900;49.306;8.500;2023-04-28T12:31:05;2.30;;;2.10;;
9722;SDS011;4900;49.306;8.500;2023-04-28T12:33:33;2.60;;;2.03;;
9722;SDS011;4900;49.306;8.500;2023-04-28T12:36:02;2.40;;;2.20;;
9722;SDS011;4900;49.306;8.500;2023-04-28T12:38:28;2.30;;;1.88;;
9722;SDS011;4900;49.306;8.500;2023-04-28T12:40:54;2.15;;;2.00;;
9722;SDS011;4900;49.306;8.500;2023-04-28T12:43:21;2.60;;;2.40;;
9722;SDS011;4900;49.306;8.500;2023-04-28T12:45:48;2.40;;;2.20;;
9722;SDS011;4900;49.306;8.500;2023-04-28T12:48:21;2.67;;;2.10;;
9722;SDS011;4900;49.306;8.500;2023-04-28T12:50:49;2.50;;;2.30;;
9722;SDS011;4900;49.306;8.500;2023-04-28T12:53:15;2.83;;;2.15;;
9722;SDS011;4900;49.306;8.500;2023-04-28T12:55:41;3.03;;;2.72;;
9722;SDS011;4900;49.306;8.500;2023-04-28T12:58:06;2.55;;;2.35;;
9722;SDS011;4900;49.306;8.500;2023-04-28T13:00:32;2.92;;;2.50;;
9722;SDS011;4900;49.306;8.500;2023-04-28T13:02:57;3.10;;;2.80;;
9722;SDS011;4900;49.306;8.500;2023-04-28T13:05:23;3.00;;;2.70;;
9722;SDS011;4900;49.306;8.500;2023-04-28T13:07:48;3.08;;;2.78;;
9722;SDS011;4900;49.306;8.500;2023-04-28T13:10:14;2.47;;;2.28;;
9722;SDS011;4900;49.306;8.500;2023-04-28T13:12:40;2.58;;;2.03;;
9722;SDS011;4900;49.306;8.500;2023-04-28T13:15:06;3.13;;;2.58;;
9722;SDS011;4900;49.306;8.500;2023-04-28T13:17:32;4.55;;;2.47;;
9722;SDS011;4900;49.306;8.500;2023-04-28T13:19:59;2.72;;;2.33;;
9722;SDS011;4900;49.306;8.500;2023-04-28T13:22:27;3.05;;;2.70;;
9722;SDS011;4900;49.306;8.500;2023-04-28T13:24:53;3.22;;;2.47;;
9722;SDS011;4900;49.306;8.500;2023-04-28T13:27:18;3.10;;;2.80;;
9722;SDS011;4900;49.306;8.500;2023-04-28T13:29:44;2.65;;;2.45;;
9722;SDS011;4900;49.306;8.500;2023-04-28T13:32:09;3.20;;;2.80;;
9722;SDS011;4900;49.306;8.500;2023-04-28T13:34:35;3.08;;;2.78;;
9722;SDS011;4900;49.306;8.500;2023-04-28T13:37:02;3.30;;;3.00;;
9722;SDS011;4900;49.306;8.500;2023-04-28T13:39:27;2.83;;;2.50;;
9722;SDS011;4900;49.306;8.500;2023-04-28T13:41:53;3.15;;;2.30;;
9722;SDS011;4900;49.306;8.500;2023-04-28T13:44:18;2.50;;;2.30;;
9722;SDS011;4900;49.306;8.500;2023-04-28T13:46:44;1.77;;;1.67;;
9722;SDS011;4900;49.306;8.500;2023-04-28T13:49:10;1.77;;;1.67;;
9722;SDS011;4900;49.306;8.500;2023-04-28T13:51:35;2.38;;;1.88;;
9722;SDS011;4900;49.306;8.500;2023-04-28T13:54:01;2.72;;;2.50;;
9722;SDS011;4900;49.306;8.500;2023-04-28T13:56:33;2.20;;;1.95;;
9722;SDS011;4900;49.306;8.500;2023-04-28T13:59:00;2.05;;;1.90;;
9722;SDS011;4900;49.306;8.500;2023-04-28T14:01:26;2.10;;;1.90;;
9722;SDS011;4900;49.306;8.500;2023-04-28T14:03:51;3.35;;;2.50;;
9722;SDS011;4900;49.306;8.500;2023-04-28T14:06:17;2.28;;;2.08;;
9722;SDS011;4900;49.306;8.500;2023-04-28T14:08:42;2.03;;;1.83;;
9722;SDS011;4900;49.306;8.500;2023-04-28T14:11:08;2.20;;;2.00;;
9722;SDS011;4900;49.306;8.500;2023-04-28T14:13:33;2.50;;;2.30;;
9722;SDS011;4900;49.306;8.500;2023-04-28T14:16:00;2.20;;;2.00;;
9722;SDS011;4900;49.306;8.500;2023-04-28T14:18:26;2.00;;;1.80;;
9722;SDS011;4900;49.306;8.500;2023-04-28T14:20:52;1.90;;;1.75;;
9722;SDS011;4900;49.306;8.500;2023-04-28T14:23:18;2.97;;;2.65;;
9722;SDS011;4900;49.306;8.500;2023-04-28T14:25:44;2.25;;;2.05;;
9722;SDS011;4900;49.306;8.500;2023-04-28T14:28:09;2.53;;;2.20;;
9722;SDS011;4900;49.306;8.500;2023-04-28T14:30:35;3.67;;;2.40;;
9722;SDS011;4900;49.306;8.500;2023-04-28T14:33:01;3.42;;;2.42;;
9722;SDS011;4900;49.306;8.500;2023-04-28T14:35:27;2.20;;;2.00;;
9722;SDS011;4900;49.306;8.500;2023-04-28T14:37:54;2.70;;;2.50;;
9722;SDS011;4900;49.306;8.500;2023-04-28T14:40:20;2.78;;;2.40;;
9722;SDS011;4900;49.306;8.500;2023-04-28T14:42:46;2.28;;;2.08;;
9722;SDS011;4900;49.306;8.500;2023-04-28T14:45:11;2.30;;;2.10;;
9722;SDS011;4900;49.306;8.500;2023-04-28T14:47:37;2.10;;;1.90;;
9722;SDS011;4900;49.306;8.500;2023-04-28T14:50:04;3.30;;;2.75;;
9722;SDS011;4900;49.306;8.500;2023-04-28T14:52:31;3.65;;;2.60;;
9722;SDS011;4900;49.306;8.500;2023-04-28T14:54:57;2.70;;;2.20;;
9722;SDS011;4900;49.306;8.500;2023-04-28T14:57:24;1.77;;;1.67;;
9722;SDS011;4900;49.306;8.500;2023-04-28T14:59:50;1.70;;;1.60;;
9722;SDS011;4900;49.306;8.500;2023-04-28T15:02:17;2.20;;;1.70;;
9722;SDS011;4900;49.306;8.500;2023-04-28T15:04:44;2.00;;;1.63;;
9722;SDS011;4900;49.306;8.500;2023-04-28T15:07:10;1.92;;;1.60;;
9722;SDS011;4900;49.306;8.500;2023-04-28T15:09:36;2.30;;;1.77;;
9722;SDS011;4900;49.306;8.500;2023-04-28T15:12:02;1.95;;;1.75;;
9722;SDS011;4900;49.306;8.500;2023-04-28T15:14:28;3.60;;;2.78;;
9722;SDS011;4900;49.306;8.500;2023-04-28T15:16:54;2.30;;;2.10;;
9722;SDS011;4900;49.306;8.500;2023-04-28T15:19:19;2.10;;;1.75;;
9722;SDS011;4900;49.306;8.500;2023-04-28T15:21:45;1.70;;;1.60;;
9722;SDS011;4900;49.306;8.500;2023-04-28T15:24:10;1.30;;;1.20;;
9722;SDS011;4900;49.306;8.500;2023-04-28T15:26:36;0.90;;;0.90;;
9722;SDS011;4900;49.306;8.500;2023-04-28T15:29:02;0.80;;;0.80;;
9722;SDS011;4900;49.306;8.500;2023-04-28T15:31:28;0.80;;;0.80;;
9722;SDS011;4900;49.306;8.500;2023-04-28T15:33:54;1.10;;;1.00;;
9722;SDS011;4900;49.306;8.500;2023-04-28T15:36:20;0.93;;;0.93;;
9722;SDS011;4900;49.306;8.500;2023-04-28T15:38:46;1.55;;;1.00;;
9722;SDS011;4900;49.306;8.500;2023-04-28T15:41:13;1.75;;;1.17;;
9722;SDS011;4900;49.306;8.500;2023-04-28T15:43:39;1.25;;;1.10;;
9722;SDS011;4900;49.306;8.500;2023-04-28T15:46:06;1.65;;;1.50;;
9722;SDS011;4900;49.306;8.500;2023-04-28T15:48:35;1.50;;;1.40;;